sensor_id;sensor_type;location;lat;lon;timestamp;pressure;altitude;pressure_sealevel;temperature;humidity
33163;BME280;29282;45.656;11.302;2023-01-26T00:00:47;98622.56;;;18.42;45.90
33163;BME280;29282;45.656;11.302;2023-01-26T00:03:13;98618.22;;;18.41;45.90
33163;BME280;29282;45.656;11.302;2023-01-26T00:05:39;98613.84;;;18.40;45.45
33163;BME280;29282;45.656;11.302;2023-01-26T00:08:04;98613.53;;;18.42;45.73
33163;BME280;29282;45.656;11.302;2023-01-26T00:10:30;98606.59;;;18.44;45.74
33163;BME280;29282;45.656;11.302;2023-01-26T00:12:56;98599.47;;;18.43;45.76
33163;BME280;29282;45.656;11.302;2023-01-26T00:15:21;98600.28;;;18.44;45.60
33163;BME280;29282;45.656;11.302;2023-01-26T00:17:48;98591.25;;;18.43;45.76
33163;BME280;29282;45.656;11.302;2023-01-26T00:20:16;98588.50;;;18.43;45.66
33163;BME280;29282;45.656;11.302;2023-01-26T00:22:42;98593.69;;;18.45;45.58
33163;BME280;29282;45.656;11.302;2023-01-26T00:25:08;98588.19;;;18.45;45.48
33163;BME280;29282;45.656;11.302;2023-01-26T00:27:34;98593.69;;;18.45;45.57
33163;BME280;29282;45.656;11.302;2023-01-26T00:29:59;98580.75;;;18.45;45.49
33163;BME280;29282;45.656;11.302;2023-01-26T00:32:25;98582.22;;;18.43;45.53
33163;BME280;29282;45.656;11.302;2023-01-26T00:34:50;98579.47;;;18.43;45.53
33163;BME280;29282;45.656;11.302;2023-01-26T00:37:16;98575.28;;;18.45;45.36
33163;BME280;29282;45.656;11.302;2023-01-26T00:39:41;98574.13;;;18.46;45.36
33163;BME280;29282;45.656;11.302;2023-01-26T00:42:07;98569.78;;;18.45;45.50
33163;BME280;29282;45.656;11.302;2023-01-26T00:44:36;98568.66;;;18.46;45.31
33163;BME280;29282;45.656;11.302;2023-01-26T00:47:03;98565.91;;;18.46;45.32
33163;BME280;29282;45.656;11.302;2023-01-26T00:49:28;98565.91;;;18.46;45.40
33163;BME280;29282;45.656;11.302;2023-01-26T00:51:54;98563.50;;;18.45;45.21
33163;BME280;29282;45.656;11.302;2023-01-26T00:54:19;98561.22;;;18.47;45.20
33163;BME280;29282;45.656;11.302;2023-01-26T00:56:45;98556.88;;;18.46;45.15
33163;BME280;29282;45.656;11.302;2023-01-26T00:59:10;98561.56;;;18.45;45.28
33163;BME280;29282;45.656;11.302;2023-01-26T01:01:36;98560.75;;;18.45;45.26
33163;BME280;29282;45.656;11.302;2023-01-26T01:04:01;98557.22;;;18.44;45.21
33163;BME280;29282;45.656;11.302;2023-01-26T01:06:27;98558.81;;;18.45;45.20
33163;BME280;29282;45.656;11.302;2023-01-26T01:08:52;98554.47;;;18.44;45.25
33163;BME280;29282;45.656;11.302;2023-01-26T01:11:18;98556.38;;;18.44;45.18
33163;BME280;29282;45.656;11.302;2023-01-26T01:13:43;98563.50;;;18.45;45.20
33163;BME280;29282;45.656;11.302;2023-01-26T01:16:12;98559.63;;;18.46;44.98
33163;BME280;29282;45.656;11.302;2023-01-26T01:18:38;98554.47;;;18.44;45.25
33163;BME280;29282;45.656;11.302;2023-01-26T01:21:08;98552.19;;;18.46;45.02
33163;BME280;29282;45.656;11.302;2023-01-26T01:23:34;98549.78;;;18.45;45.17
33163;BME280;29282;45.656;11.302;2023-01-26T01:25:59;98549.44;;;18.46;44.99
33163;BME280;29282;45.656;11.302;2023-01-26T01:28:26;98547.84;;;18.45;44.99
33163;BME280;29282;45.656;11.302;2023-01-26T01:30:51;98549.44;;;18.46;44.92
33163;BME280;29282;45.656;11.302;2023-01-26T01:33:17;98538.47;;;18.46;44.97
33163;BME280;29282;45.656;11.302;2023-01-26T01:35:42;98542.66;;;18.44;44.97
33163;BME280;29282;45.656;11.302;2023-01-26T01:38:08;98539.13;;;18.43;45.04
33163;BME280;29282;45.656;11.302;2023-01-26T01:40:33;98539.94;;;18.44;44.98
33163;BME280;29282;45.656;11.302;2023-01-26T01:42:59;98529.28;;;18.42;44.93
33163;BME280;29282;45.656;11.302;2023-01-26T01:47:55;98524.59;;;18.43;45.02
33163;BME280;29282;45.656;11.302;2023-01-26T01:50:22;98524.59;;;18.43;44.93
33163;BME280;29282;45.656;11.302;2023-01-26T01:52:48;98520.41;;;18.45;44.99
33163;BME280;29282;45.656;11.302;2023-01-26T01:55:14;98517.31;;;18.47;44.69
33163;BME280;29282;45.656;11.302;2023-01-26T01:57:54;98517.31;;;18.47;44.86
33163;BME280;29282;45.656;11.302;2023-01-26T02:00:22;98513.31;;;18.44;44.77
33163;BME280;29282;45.656;11.302;2023-01-26T02:02:52;98516.06;;;18.44;44.84
33163;BME280;29282;45.656;11.302;2023-01-26T02:08:32;98514.13;;;18.45;44.70
33163;BME280;29282;45.656;11.302;2023-01-26T02:11:01;98505.09;;;18.44;44.92
33163;BME280;29282;45.656;11.302;2023-01-26T02:13:29;98504.41;;;18.47;44.82
33163;BME280;29282;45.656;11.302;2023-01-26T02:15:58;98500.06;;;18.46;44.75
33163;BME280;29282;45.656;11.302;2023-01-26T02:18:24;98496.16;;;18.47;44.76
33163;BME280;29282;45.656;11.302;2023-01-26T02:20:56;98503.59;;;18.47;44.80
33163;BME280;29282;45.656;11.302;2023-01-26T02:28:18;98486.16;;;18.51;44.42
33163;BME280;29282;45.656;11.302;2023-01-26T02:30:45;98491.97;;;18.50;44.50
33163;BME280;29282;45.656;11.302;2023-01-26T02:33:30;98487.63;;;18.49;44.52
33163;BME280;29282;45.656;11.302;2023-01-26T02:35:57;98484.53;;;18.50;44.67
33163;BME280;29282;45.656;11.302;2023-01-26T02:38:26;98481.00;;;18.50;44.60
33163;BME280;29282;45.656;11.302;2023-01-26T02:41:06;98482.16;;;18.49;44.54
33163;BME280;29282;45.656;11.302;2023-01-26T02:43:32;98481.00;;;18.50;44.57
33163;BME280;29282;45.656;11.302;2023-01-26T02:45:57;98479.72;;;18.47;44.64
33163;BME280;29282;45.656;11.302;2023-01-26T02:48:23;98475.38;;;18.46;44.60
33163;BME280;29282;45.656;11.302;2023-01-26T02:51:08;98469.56;;;18.48;44.46
33163;BME280;29282;45.656;11.302;2023-01-26T02:53:33;98471.66;;;18.51;44.48
33163;BME280;29282;45.656;11.302;2023-01-26T02:55:59;98464.09;;;18.48;44.44
33163;BME280;29282;45.656;11.302;2023-01-26T02:58:24;98458.59;;;18.48;44.51
33163;BME280;29282;45.656;11.302;2023-01-26T03:00:50;98460.50;;;18.47;44.60
33163;BME280;29282;45.656;11.302;2023-01-26T03:03:19;98448.41;;;18.48;44.47
33163;BME280;29282;45.656;11.302;2023-01-26T03:05:47;98453.09;;;18.48;44.42
33163;BME280;29282;45.656;11.302;2023-01-26T03:08:12;98449.53;;;18.47;44.54
33163;BME280;29282;45.656;11.302;2023-01-26T03:10:38;98444.38;;;18.46;44.46
33163;BME280;29282;45.656;11.302;2023-01-26T03:13:04;98446.00;;;18.47;44.44
33163;BME280;29282;45.656;11.302;2023-01-26T03:15:29;98448.72;;;18.47;44.30
33163;BME280;29282;45.656;11.302;2023-01-26T03:18:15;98445.34;;;18.50;44.44
33163;BME280;29282;45.656;11.302;2023-01-26T03:21:01;98448.06;;;18.50;44.33
33163;BME280;29282;45.656;11.302;2023-01-26T03:23:46;98437.91;;;18.50;44.47
33163;BME280;29282;45.656;11.302;2023-01-26T03:26:30;98440.50;;;18.47;44.29
33163;BME280;29282;45.656;11.302;2023-01-26T03:29:15;98438.25;;;18.49;44.27
33163;BME280;29282;45.656;11.302;2023-01-26T03:31:40;98434.69;;;18.48;44.50
33163;BME280;29282;45.656;11.302;2023-01-26T03:34:06;98431.47;;;18.46;44.35
33163;BME280;29282;45.656;11.302;2023-01-26T03:36:31;98425.66;;;18.48;44.54
33163;BME280;29282;45.656;11.302;2023-01-26T03:38:57;98424.03;;;18.47;44.41
33163;BME280;29282;45.656;11.302;2023-01-26T03:41:22;98420.97;;;18.48;44.47
33163;BME280;29282;45.656;11.302;2023-01-26T03:44:06;98407.59;;;18.47;44.34
33163;BME280;29282;45.656;11.302;2023-01-26T03:46:50;98409.22;;;18.48;44.50
33163;BME280;29282;45.656;11.302;2023-01-26T03:49:34;98409.22;;;18.48;44.36
33163;BME280;29282;45.656;11.302;2023-01-26T03:52:18;98410.47;;;18.50;44.45
33163;BME280;29282;45.656;11.302;2023-01-26T03:55:03;98404.19;;;18.50;44.54
33163;BME280;29282;45.656;11.302;2023-01-26T03:57:47;98399.84;;;18.49;44.51
33163;BME280;29282;45.656;11.302;2023-01-26T04:00:13;98394.66;;;18.47;44.37
33163;BME280;29282;45.656;11.302;2023-01-26T04:02:40;98391.13;;;18.47;44.40
33163;BME280;29282;45.656;11.302;2023-01-26T04:05:24;98390.47;;;18.50;44.29
33163;BME280;29282;45.656;11.302;2023-01-26T04:08:07;98378.19;;;18.47;44.28
33163;BME280;29282;45.656;11.302;2023-01-26T04:10:54;98386.13;;;18.49;44.39
33163;BME280;29282;45.656;11.302;2023-01-26T04:13:23;98383.69;;;18.47;44.36
33163;BME280;29282;45.656;11.302;2023-01-26T04:16:08;98375.00;;;18.45;44.30
33163;BME280;29282;45.656;11.302;2023-01-26T04:18:53;98371.78;;;18.43;44.57
33163;BME280;29282;45.656;11.302;2023-01-26T04:21:37;98364.84;;;18.46;44.47
33163;BME280;29282;45.656;11.302;2023-01-26T04:24:04;98369.84;;;18.44;44.46
33163;BME280;29282;45.656;11.302;2023-01-26T04:26:39;98363.56;;;18.43;44.45
33163;BME280;29282;45.656;11.302;2023-01-26T04:29:10;98355.81;;;18.45;44.43
33163;BME280;29282;45.656;11.302;2023-01-26T04:31:36;98346.78;;;18.45;44.33
33163;BME280;29282;45.656;11.302;2023-01-26T04:34:04;98348.84;;;18.48;44.55
33163;BME280;29282;45.656;11.302;2023-01-26T04:36:30;98341.41;;;18.48;44.47
33163;BME280;29282;45.656;11.302;2023-01-26T04:38:56;98340.63;;;18.48;44.40
33163;BME280;29282;45.656;11.302;2023-01-26T04:41:22;98340.75;;;18.51;44.27
33163;BME280;29282;45.656;11.302;2023-01-26T04:43:49;98337.06;;;18.47;44.37
33163;BME280;29282;45.656;11.302;2023-01-26T04:46:15;98335.28;;;18.51;44.20
33163;BME280;29282;45.656;11.302;2023-01-26T04:48:41;98333.50;;;18.47;44.19
33163;BME280;29282;45.656;11.302;2023-01-26T04:51:12;98325.09;;;18.52;44.23
33163;BME280;29282;45.656;11.302;2023-01-26T04:53:38;98322.34;;;18.52;44.27
33163;BME280;29282;45.656;11.302;2023-01-26T04:56:03;98325.91;;;18.52;45.00
33163;BME280;29282;45.656;11.302;2023-01-26T04:58:29;98323.16;;;18.52;45.62
33163;BME280;29282;45.656;11.302;2023-01-26T05:00:56;98326.03;;;18.56;46.06
33163;BME280;29282;45.656;11.302;2023-01-26T05:03:23;98325.22;;;18.55;45.94
33163;BME280;29282;45.656;11.302;2023-01-26T05:05:50;98326.69;;;18.53;46.28
33163;BME280;29282;45.656;11.302;2023-01-26T05:08:17;98320.88;;;18.54;46.27
33163;BME280;29282;45.656;11.302;2023-01-26T05:10:44;98317.31;;;18.54;46.24
33163;BME280;29282;45.656;11.302;2023-01-26T05:13:10;98312.66;;;18.54;46.28
33163;BME280;29282;45.656;11.302;2023-01-26T05:15:36;98315.25;;;18.51;46.49
33163;BME280;29282;45.656;11.302;2023-01-26T05:18:02;98313.63;;;18.50;46.26
33163;BME280;29282;45.656;11.302;2023-01-26T05:20:28;98317.53;;;18.49;45.96
33163;BME280;29282;45.656;11.302;2023-01-26T05:22:54;98304.97;;;18.48;46.23
33163;BME280;29282;45.656;11.302;2023-01-26T05:25:19;98308.81;;;18.47;46.02
33163;BME280;29282;45.656;11.302;2023-01-26T05:27:45;98306.75;;;18.44;46.12
33163;BME280;29282;45.656;11.302;2023-01-26T05:30:11;98313.72;;;18.41;46.08
33163;BME280;29282;45.656;11.302;2023-01-26T05:32:37;98318.84;;;18.43;46.00
33163;BME280;29282;45.656;11.302;2023-01-26T05:35:04;98320.00;;;18.42;45.87
33163;BME280;29282;45.656;11.302;2023-01-26T05:37:30;98313.38;;;18.43;46.10
33163;BME280;29282;45.656;11.302;2023-01-26T05:39:55;98313.84;;;18.45;45.97
33163;BME280;29282;45.656;11.302;2023-01-26T05:42:21;98311.09;;;18.45;46.16
33163;BME280;29282;45.656;11.302;2023-01-26T05:44:47;98319.34;;;18.45;45.92
33163;BME280;29282;45.656;11.302;2023-01-26T05:47:13;98319.34;;;18.45;46.07
33163;BME280;29282;45.656;11.302;2023-01-26T05:49:39;98312.22;;;18.44;46.03
33163;BME280;29282;45.656;11.302;2023-01-26T05:52:13;98317.72;;;18.44;45.92
33163;BME280;29282;45.656;11.302;2023-01-26T05:54:39;98311.09;;;18.45;45.69
33163;BME280;29282;45.656;11.302;2023-01-26T05:57:05;98325.94;;;18.44;45.86
33163;BME280;29282;45.656;11.302;2023-01-26T05:59:31;98325.63;;;18.45;45.81
33163;BME280;29282;45.656;11.302;2023-01-26T06:01:57;98330.31;;;18.45;45.68
33163;BME280;29282;45.656;11.302;2023-01-26T06:04:23;98328.69;;;18.44;45.69
33163;BME280;29282;45.656;11.302;2023-01-26T06:06:52;98328.81;;;18.47;45.65
33163;BME280;29282;45.656;11.302;2023-01-26T06:09:18;98334.66;;;18.46;45.40
33163;BME280;29282;45.656;11.302;2023-01-26T06:11:43;98339.34;;;18.45;45.50
33163;BME280;29282;45.656;11.302;2023-01-26T06:14:09;98336.59;;;18.45;45.59
33163;BME280;29282;45.656;11.302;2023-01-26T06:16:34;98333.84;;;18.45;45.54
33163;BME280;29282;45.656;11.302;2023-01-26T06:19:00;98334.66;;;18.46;45.49
33163;BME280;29282;45.656;11.302;2023-01-26T06:21:25;98329.16;;;18.46;45.36
33163;BME280;29282;45.656;11.302;2023-01-26T06:23:51;98321.41;;;18.48;45.30
33163;BME280;29282;45.656;11.302;2023-01-26T06:26:17;98328.38;;;18.45;45.19
33163;BME280;29282;45.656;11.302;2023-01-26T06:28:43;98329.16;;;18.46;45.27
33163;BME280;29282;45.656;11.302;2023-01-26T06:31:09;98329.16;;;18.46;45.14
33163;BME280;29282;45.656;11.302;2023-01-26T06:33:36;98319.78;;;18.47;45.20
33163;BME280;29282;45.656;11.302;2023-01-26T06:36:22;98322.88;;;18.45;45.08
33163;BME280;29282;45.656;11.302;2023-01-26T06:38:50;98323.34;;;18.47;45.00
33163;BME280;29282;45.656;11.302;2023-01-26T06:41:17;98314.78;;;18.49;45.07
33163;BME280;29282;45.656;11.302;2023-01-26T06:43:45;98319.00;;;18.46;45.05
33163;BME280;29282;45.656;11.302;2023-01-26T06:46:11;98316.06;;;18.51;44.77
33163;BME280;29282;45.656;11.302;2023-01-26T06:48:37;98304.97;;;18.48;44.83
33163;BME280;29282;45.656;11.302;2023-01-26T06:54:00;98307.84;;;18.51;44.74
33163;BME280;29282;45.656;11.302;2023-01-26T06:56:25;98305.53;;;18.53;44.90
33163;BME280;29282;45.656;11.302;2023-01-26T06:58:53;98305.75;;;18.48;44.97
33163;BME280;29282;45.656;11.302;2023-01-26T07:01:19;98308.16;;;18.50;45.05
33163;BME280;29282;45.656;11.302;2023-01-26T07:03:49;98310.22;;;18.53;44.95
33163;BME280;29282;45.656;11.302;2023-01-26T07:06:15;98302.66;;;18.50;44.93
33163;BME280;29282;45.656;11.302;2023-01-26T07:08:40;98305.41;;;18.50;45.05
33163;BME280;29282;45.656;11.302;2023-01-26T07:11:06;98298.19;;;18.45;45.13
33163;BME280;29282;45.656;11.302;2023-01-26T07:13:32;98299.78;;;18.46;45.16
33163;BME280;29282;45.656;11.302;2023-01-26T07:16:02;98307.34;;;18.49;45.02
33163;BME280;29282;45.656;11.302;2023-01-26T07:18:28;98306.56;;;18.49;45.02
33163;BME280;29282;45.656;11.302;2023-01-26T07:20:53;98306.56;;;18.49;45.15
33163;BME280;29282;45.656;11.302;2023-01-26T07:23:19;98306.56;;;18.49;45.06
33163;BME280;29282;45.656;11.302;2023-01-26T07:25:44;98306.56;;;18.49;44.97
33163;BME280;29282;45.656;11.302;2023-01-26T07:28:10;98304.47;;;18.46;45.15
33163;BME280;29282;45.656;11.302;2023-01-26T07:30:35;98300.28;;;18.48;44.92
33163;BME280;29282;45.656;11.302;2023-01-26T07:33:01;98299.47;;;18.48;44.92
33163;BME280;29282;45.656;11.302;2023-01-26T07:35:27;98296.25;;;18.46;45.01
33163;BME280;29282;45.656;11.302;2023-01-26T07:37:54;98298.31;;;18.49;44.95
33163;BME280;29282;45.656;11.302;2023-01-26T07:40:19;98306.06;;;18.47;45.09
33163;BME280;29282;45.656;11.302;2023-01-26T07:42:45;98297.41;;;18.45;44.88
33163;BME280;29282;45.656;11.302;2023-01-26T07:45:11;98300.94;;;18.45;45.00
33163;BME280;29282;45.656;11.302;2023-01-26T07:47:36;98299.47;;;18.48;44.90
33163;BME280;29282;45.656;11.302;2023-01-26T07:50:02;98304.97;;;18.48;44.71
33163;BME280;29282;45.656;11.302;2023-01-26T07:52:28;98298.66;;;18.47;44.75
33163;BME280;29282;45.656;11.302;2023-01-26T07:54:53;98310.44;;;18.48;44.71
33163;BME280;29282;45.656;11.302;2023-01-26T07:57:19;98300.13;;;18.45;44.96
33163;BME280;29282;45.656;11.302;2023-01-26T07:59:44;98298.50;;;18.44;44.89
33163;BME280;29282;45.656;11.302;2023-01-26T08:02:10;98306.75;;;18.44;44.83
33163;BME280;29282;45.656;11.302;2023-01-26T08:04:35;98300.13;;;18.45;44.75
33163;BME280;29282;45.656;11.302;2023-01-26T08:07:01;98302.41;;;18.43;44.87
33163;BME280;29282;45.656;11.302;2023-01-26T08:09:26;98297.72;;;18.43;44.64
33163;BME280;29282;45.656;11.302;2023-01-26T08:11:51;98303.34;;;18.47;44.82
33163;BME280;29282;45.656;11.302;2023-01-26T08:14:17;98296.91;;;18.43;44.80
33163;BME280;29282;45.656;11.302;2023-01-26T08:16:42;98303.34;;;18.47;44.72
33163;BME280;29282;45.656;11.302;2023-01-26T08:19:09;98293.50;;;18.46;44.70
33163;BME280;29282;45.656;11.302;2023-01-26T08:21:34;98296.25;;;18.46;44.67
33163;BME280;29282;45.656;11.302;2023-01-26T08:24:00;98296.91;;;18.43;44.83
33163;BME280;29282;45.656;11.302;2023-01-26T08:26:27;98296.25;;;18.46;44.57
33163;BME280;29282;45.656;11.302;2023-01-26T08:28:53;98294.66;;;18.45;44.57
33163;BME280;29282;45.656;11.302;2023-01-26T08:31:20;98304.81;;;18.44;44.57
33163;BME280;29282;45.656;11.302;2023-01-26T08:33:47;98301.75;;;18.46;44.45
33163;BME280;29282;45.656;11.302;2023-01-26T08:36:15;98304.00;;;18.44;44.68
33163;BME280;29282;45.656;11.302;2023-01-26T08:38:41;98305.63;;;18.45;44.45
33163;BME280;29282;45.656;11.302;2023-01-26T08:41:07;98309.47;;;18.44;44.45
33163;BME280;29282;45.656;11.302;2023-01-26T08:43:33;98304.00;;;18.44;44.63
33163;BME280;29282;45.656;11.302;2023-01-26T08:45:59;98305.63;;;18.45;44.61
33163;BME280;29282;45.656;11.302;2023-01-26T08:48:25;98293.03;;;18.44;44.44
33163;BME280;29282;45.656;11.302;2023-01-26T08:50:55;98302.88;;;18.45;44.41
33163;BME280;29282;45.656;11.302;2023-01-26T08:53:22;98297.41;;;18.45;44.41
33163;BME280;29282;45.656;11.302;2023-01-26T08:55:47;98300.13;;;18.45;44.45
33163;BME280;29282;45.656;11.302;2023-01-26T08:58:13;98303.69;;;18.45;44.47
33163;BME280;29282;45.656;11.302;2023-01-26T09:00:38;98294.66;;;18.45;44.29
33163;BME280;29282;45.656;11.302;2023-01-26T09:03:04;98294.66;;;18.45;44.47
33163;BME280;29282;45.656;11.302;2023-01-26T09:05:32;98294.66;;;18.45;44.52
33163;BME280;29282;45.656;11.302;2023-01-26T09:07:57;98291.69;;;18.50;44.34
33163;BME280;29282;45.656;11.302;2023-01-26T09:10:23;98294.44;;;18.50;44.21
33163;BME280;29282;45.656;11.302;2023-01-26T09:12:49;98299.59;;;18.51;44.24
33163;BME280;29282;45.656;11.302;2023-01-26T09:15:15;98295.59;;;18.49;44.30
33163;BME280;29282;45.656;11.302;2023-01-26T09:17:40;98288.50;;;18.48;44.33
33163;BME280;29282;45.656;11.302;2023-01-26T09:20:10;98289.97;;;18.45;44.28
33163;BME280;29282;45.656;11.302;2023-01-26T09:22:36;98294.78;;;18.48;44.32
33163;BME280;29282;45.656;11.302;2023-01-26T09:25:02;98295.59;;;18.49;44.29
33163;BME280;29282;45.656;11.302;2023-01-26T09:27:27;98290.09;;;18.49;44.03
33163;BME280;29282;45.656;11.302;2023-01-26T09:29:53;98297.97;;;18.50;44.23
33163;BME280;29282;45.656;11.302;2023-01-26T09:32:20;98294.44;;;18.50;44.07
33163;BME280;29282;45.656;11.302;2023-01-26T09:34:45;98287.34;;;18.49;44.09
33163;BME280;29282;45.656;11.302;2023-01-26T09:37:11;98292.50;;;18.50;44.19
33163;BME280;29282;45.656;11.302;2023-01-26T09:39:36;98299.78;;;18.46;44.32
33163;BME280;29282;45.656;11.302;2023-01-26T09:44:47;98292.84;;;18.49;44.16
33163;BME280;29282;45.656;11.302;2023-01-26T09:50:34;98289.28;;;18.48;44.27
33163;BME280;29282;45.656;11.302;2023-01-26T09:53:13;98287.66;;;18.47;44.25
33163;BME280;29282;45.656;11.302;2023-01-26T09:55:40;98288.50;;;18.48;44.22
33163;BME280;29282;45.656;11.302;2023-01-26T09:58:31;98287.22;;;18.45;44.16
33163;BME280;29282;45.656;11.302;2023-01-26T10:01:02;98288.38;;;18.44;44.15
33163;BME280;29282;45.656;11.302;2023-01-26T10:03:50;98284.00;;;18.43;44.06
33163;BME280;29282;45.656;11.302;2023-01-26T10:06:26;98278.38;;;18.40;44.27
33163;BME280;29282;45.656;11.302;2023-01-26T10:09:17;98278.84;;;18.42;44.32
33163;BME280;29282;45.656;11.302;2023-01-26T10:11:52;98274.50;;;18.41;44.18
33163;BME280;29282;45.656;11.302;2023-01-26T10:14:30;98266.59;;;18.39;44.23
33163;BME280;29282;45.656;11.302;2023-01-26T10:16:56;98272.44;;;18.38;44.49
33163;BME280;29282;45.656;11.302;2023-01-26T10:21:58;98264.88;;;18.35;44.51
33163;BME280;29282;45.656;11.302;2023-01-26T10:24:26;98263.25;;;18.34;44.32
33163;BME280;29282;45.656;11.302;2023-01-26T10:26:55;98253.06;;;18.34;44.29
33163;BME280;29282;45.656;11.302;2023-01-26T10:29:22;98252.28;;;18.34;44.33
33163;BME280;29282;45.656;11.302;2023-01-26T10:31:47;98256.16;;;18.33;44.40
33163;BME280;29282;45.656;11.302;2023-01-26T10:34:15;98254.56;;;18.31;44.47
33163;BME280;29282;45.656;11.302;2023-01-26T10:36:44;98250.69;;;18.33;44.34
33163;BME280;29282;45.656;11.302;2023-01-26T10:39:12;98245.56;;;18.31;44.38
33163;BME280;29282;45.656;11.302;2023-01-26T10:41:38;98241.66;;;18.32;44.39
33163;BME280;29282;45.656;11.302;2023-01-26T10:44:33;98236.19;;;18.32;44.22
33163;BME280;29282;45.656;11.302;2023-01-26T10:49:38;98226.81;;;18.33;44.18
33163;BME280;29282;45.656;11.302;2023-01-26T10:54:41;98218.13;;;18.31;44.28
33163;BME280;29282;45.656;11.302;2023-01-26T10:57:28;98215.69;;;18.29;44.21
33163;BME280;29282;45.656;11.302;2023-01-26T10:59:56;98205.88;;;18.28;44.23
33163;BME280;29282;45.656;11.302;2023-01-26T11:02:26;98199.25;;;18.29;44.28
33163;BME280;29282;45.656;11.302;2023-01-26T11:07:38;98198.09;;;18.30;44.35
33163;BME280;29282;45.656;11.302;2023-01-26T11:10:30;98187.94;;;18.31;44.14
33163;BME280;29282;45.656;11.302;2023-01-26T11:13:16;98188.28;;;18.29;44.25
33163;BME280;29282;45.656;11.302;2023-01-26T11:16:09;98182.47;;;18.31;44.23
33163;BME280;29282;45.656;11.302;2023-01-26T11:21:29;98178.91;;;18.30;44.22
33163;BME280;29282;45.656;11.302;2023-01-26T11:34:53;98145.53;;;18.28;44.29
33163;BME280;29282;45.656;11.302;2023-01-26T11:37:37;98143.13;;;18.27;44.25
33163;BME280;29282;45.656;11.302;2023-01-26T11:42:57;98131.47;;;18.30;44.28
33163;BME280;29282;45.656;11.302;2023-01-26T11:45:49;98129.41;;;18.27;44.36
33163;BME280;29282;45.656;11.302;2023-01-26T11:54:09;98105.88;;;18.26;44.21
33163;BME280;29282;45.656;11.302;2023-01-26T11:56:51;98099.91;;;18.24;44.25
33163;BME280;29282;45.656;11.302;2023-01-26T12:02:41;98092.16;;;18.26;44.03
33163;BME280;29282;45.656;11.302;2023-01-26T12:05:16;98095.22;;;18.24;44.02
33163;BME280;29282;45.656;11.302;2023-01-26T12:07:56;98082.66;;;18.23;44.34
33163;BME280;29282;45.656;11.302;2023-01-26T12:10:35;98082.22;;;18.21;44.15
33163;BME280;29282;45.656;11.302;2023-01-26T12:13:37;98075.91;;;18.21;44.31
33163;BME280;29282;45.656;11.302;2023-01-26T12:16:14;98076.72;;;18.21;44.24
33163;BME280;29282;45.656;11.302;2023-01-26T12:18:53;98069.63;;;18.20;44.24
33163;BME280;29282;45.656;11.302;2023-01-26T12:21:25;98059.81;;;18.19;44.33
33163;BME280;29282;45.656;11.302;2023-01-26T12:24:01;98063.34;;;18.20;44.46
33163;BME280;29282;45.656;11.302;2023-01-26T12:26:42;98056.38;;;18.22;44.09
33163;BME280;29282;45.656;11.302;2023-01-26T12:29:17;98050.44;;;18.20;44.32
33163;BME280;29282;45.656;11.302;2023-01-26T12:34:28;98043.00;;;18.21;44.34
33163;BME280;29282;45.656;11.302;2023-01-26T12:39:55;98041.53;;;18.23;44.32
33163;BME280;29282;45.656;11.302;2023-01-26T12:45:24;98031.72;;;18.22;44.39
33163;BME280;29282;45.656;11.302;2023-01-26T12:48:06;98028.97;;;18.22;44.24
33163;BME280;29282;45.656;11.302;2023-01-26T12:50:39;98026.66;;;18.24;44.51
33163;BME280;29282;45.656;11.302;2023-01-26T12:53:45;98024.28;;;18.23;44.56
33163;BME280;29282;45.656;11.302;2023-01-26T12:56:27;98020.38;;;18.24;44.59
33163;BME280;29282;45.656;11.302;2023-01-26T12:58:56;98024.28;;;18.23;44.60
33163;BME280;29282;45.656;11.302;2023-01-26T13:01:24;98014.91;;;18.24;44.49
33163;BME280;29282;45.656;11.302;2023-01-26T13:03:55;98006.69;;;18.24;44.72
33163;BME280;29282;45.656;11.302;2023-01-26T13:06:24;98007.81;;;18.23;44.58
33163;BME280;29282;45.656;11.302;2023-01-26T13:14:57;97999.47;;;18.19;44.77
33163;BME280;29282;45.656;11.302;2023-01-26T13:19:51;97994.19;;;18.14;44.83
33163;BME280;29282;45.656;11.302;2023-01-26T13:24:47;97996.69;;;17.95;44.04
33163;BME280;29282;45.656;11.302;2023-01-26T13:29:56;97985.00;;;17.86;42.96
33163;BME280;29282;45.656;11.302;2023-01-26T13:39:54;97976.13;;;18.01;41.38
33163;BME280;29282;45.656;11.302;2023-01-26T13:42:24;97971.25;;;18.06;41.31
33163;BME280;29282;45.656;11.302;2023-01-26T13:45:05;97980.25;;;18.07;41.37
33163;BME280;29282;45.656;11.302;2023-01-26T13:47:39;97972.94;;;18.11;41.38
33163;BME280;29282;45.656;11.302;2023-01-26T13:52:56;97975.38;;;18.13;41.21
33163;BME280;29282;45.656;11.302;2023-01-26T13:55:32;97973.09;;;18.15;41.25
33163;BME280;29282;45.656;11.302;2023-01-26T13:58:12;97978.69;;;18.18;41.26
33163;BME280;29282;45.656;11.302;2023-01-26T14:00:40;97974.34;;;18.17;41.23
33163;BME280;29282;45.656;11.302;2023-01-26T14:03:23;97972.06;;;18.19;41.20
33163;BME280;29282;45.656;11.302;2023-01-26T14:05:57;97974.81;;;18.19;41.53
33163;BME280;29282;45.656;11.302;2023-01-26T14:08:26;97964.63;;;18.20;41.43
33163;BME280;29282;45.656;11.302;2023-01-26T14:10:55;97966.56;;;18.19;41.68
33163;BME280;29282;45.656;11.302;2023-01-26T14:13:32;97974.81;;;18.19;41.57
33163;BME280;29282;45.656;11.302;2023-01-26T14:16:04;97965.31;;;18.17;41.98
33163;BME280;29282;45.656;11.302;2023-01-26T14:18:31;97970.47;;;18.18;42.06
33163;BME280;29282;45.656;11.302;2023-01-26T14:21:02;97970.78;;;18.17;42.08
33163;BME280;29282;45.656;11.302;2023-01-26T14:23:33;97960.63;;;18.17;41.98
33163;BME280;29282;45.656;11.302;2023-01-26T14:26:05;97962.56;;;18.17;41.97
33163;BME280;29282;45.656;11.302;2023-01-26T14:28:40;97960.97;;;18.16;42.12
33163;BME280;29282;45.656;11.302;2023-01-26T14:31:19;97963.72;;;18.16;42.35